Hakon Sorloth

Scout - Rosenborg
4 Dez 2027
Samstag
Verarbeitung

Persönlichkeit

Anpassungsfähigkeit (17) Ehrgeiz (12) Kontroverse (2) Loyalität (12) Druck (12) Professionalität (19) Fairness (12) Temperament (17)

Profil

Trainerstil Demokratisch
Lizenz Nationale C
Entschlossenheit 12
Menschenführung 10
Motivation 10
Disziplin 12
Arbeitszufriedenheit
100%
Ermüdung
0%
Rolle Scout
Gehalt 64.7K p/W
Vertrag 30.06.2030

Leistung

Verhalten Gut
Trainingseffektivität
36%
Spielerentwicklung
40%
Verletzungsprävention
20%
Taktische Umsetzung
40%

Letzte Ereignisse

Nahm an einer Scouting-Besprechung teil jetzt
Empfahl ein Transferziel jetzt
Empfahl ein Transferziel jetzt
Empfahl ein Transferziel jetzt
Empfahl ein Transferziel jetzt
Spieler begutachtet jetzt
Spieler begutachtet 7T her
Spieler begutachtet 7T her

Aktuell beobachtet

192
Spieler Verein Status Fähigkeit Vertrauen Beobachtet Zuletzt beobachtet Letzte Stimme
Hosea Michael Remo Stars Aktiv 95 / 94 40% 7 02.12.2027 -
Edvard Pettersen Sandefjord Aktiv 109 / 119 40% 9 02.12.2027 -
Bade Aluko Accrington Stanley Aktiv 120 / 131 40% 4 02.12.2027 -
Sheriff Amuda Shooting Stars Aktiv 83 / 96 40% 6 01.12.2027 -
Kauã Moraes Cruzeiro Aktiv 126 / 127 40% 4 01.12.2027 -
Lewis Miley Birmingham Aktiv 148 / 154 40% 3 01.12.2027 -
Olaniyi Saheed Kwara United Aktiv 94 / 106 40% 3 30.11.2027 -
Gideon Manaseh Ikorodu City Aktiv 100 / 101 40% 5 28.11.2027 -
Agustín Medina Lanús Aktiv 120 / 119 40% 2 28.11.2027 -
Mads Bomholt Lillestrom Aktiv 111 / 119 40% 4 27.11.2027 -
Mateo Caballero Defensor Sporting Aktiv 100 / 113 40% 3 27.11.2027 -
Josh Acheampong Oxford United Aktiv 147 / 142 40% 1 27.11.2027 -
Fillip Jenssen Riise Stabaek Aktiv 102 / 111 40% 4 25.11.2027 -
Francis Gomez Accrington Stanley Aktiv 113 / 124 40% 1 25.11.2027 -
Azizbek To'lqinbekov Bunyodkor Aktiv 101 / 108 40% 2 24.11.2027 -
Kenan Busuladžić Malmo FF Aktiv 113 / 126 40% 1 24.11.2027 -
Björn Hedlöf Helsingborg Aktiv 89 / 99 40% 1 24.11.2027 -
Trey Nyoni Doncaster Rovers Aktiv 133 / 139 40% 2 23.11.2027 -
Onuorah Onyedika Kun Khalifat Aktiv 84 / 90 40% 1 23.11.2027 -
Aleksander Hammer Kjelsen Aalesund Aktiv 105 / 111 40% 2 21.11.2027 -
Julian Bjørkavåg IK Start Aktiv 94 / 98 40% 3 19.11.2027 -
Nahuel Leivas Montevideo City Torque Aktiv 108 / 109 40% 1 19.11.2027 -
Henrik Skretteberg Sandefjord Aktiv 79 / 91 40% 1 17.11.2027 -
Juan Camilo Córdoba Deportivo Pereira Aktiv 82 / 93 40% 3 15.11.2027 -
Felipe Obradovich Gimnasia La Plata Aktiv 104 / 122 40% 1 15.11.2027 -
Geanfranco Rodríguez Defensor Sporting Aktiv 97 / 95 40% 1 14.11.2027 -
Lennon Miller Udinese Aktiv 143 / 137 40% 1 14.11.2027 -
Christos Mouzakitis Hull City Aktiv 141 / 145 40% 5 13.11.2027 -
Sam Curtis Swindon Town Aktiv 104 / 115 40% 6 13.11.2027 -
Godwin Oham Warri Wolves Aktiv 94 / 86 40% 6 13.11.2027 -
Tyson Pearce St. Louis CITY SC Aktiv 95 / 97 40% 8 12.11.2027 -
Ayden Heaven Sheffield Wednesday Aktiv 145 / 156 40% 3 11.11.2027 -
Tiago Gordillo San Miguel Aktiv 79 / 95 40% 2 11.11.2027 -
Ayyoub Bouaddi Blackpool Aktiv 141 / 150 40% 1 11.11.2027 -
Aiden Hezarkhani Real Salt Lake Aktiv 88 / 105 40% 4 10.11.2027 -
Josh King Derby County Aktiv 143 / 148 40% 1 10.11.2027 -
Caleb Yirenkyi Coventry City Aktiv 143 / 141 40% 4 09.11.2027 -
Giovanni Leoni Mansfield Town Aktiv 145 / 146 40% 1 09.11.2027 -
Jaydee Canvot Liverpool Aktiv 139 / 143 40% 5 08.11.2027 -
Joel Ezra Enyimba Aktiv 86 / 101 40% 4 08.11.2027 -
Onyeuche Ujunwa Ikorodu City Aktiv 84 / 88 40% 2 07.11.2027 -
Honest Ahanor Atalanta Aktiv 140 / 136 40% 1 07.11.2027 -
Tobias Moi Bodo/Glimt Aktiv 106 / 113 40% 3 03.11.2027 -
Dayann Methalie Everton Aktiv 142 / 145 40% 1 01.11.2027 -
Juan Manuel Villalba Boca Juniors Aktiv 114 / 124 40% 1 01.11.2027 -
Adrian Skogmar Malmo FF Aktiv 109 / 124 40% 1 08.10.2027 -
Nazareno Roselli Defensa y Justicia Aktiv 106 / 124 40% 1 08.10.2027 -
Inti Borghetto Patronato Aktiv 97 / 94 40% 2 07.10.2027 -
Lautaro Dufur Rentistas Aktiv 105 / 101 40% 1 04.10.2027 -
Daniel Idoko Ikorodu City Aktiv 96 / 98 40% 1 03.10.2027 -
Kaick FC Dallas Aktiv 110 / 110 40% 1 03.10.2027 -
Uche Jaguar Kwara United Aktiv 98 / 92 40% 3 01.10.2027 -
Esteban de Lima Tacuarembo Aktiv 92 / 104 40% 2 01.10.2027 -
Archie Gray Leicester City Aktiv 150 / 160 40% 2 01.10.2027 -
Diego Cheuquepal Racing Aktiv 96 / 104 40% 1 29.09.2027 -
Jonathan Norbye Stabaek Aktiv 109 / 114 40% 2 26.09.2027 -
Felipe Faúndez O'Higgins Aktiv 96 / 103 40% 2 17.09.2027 -
Braian Cabral Madryn Aktiv 93 / 102 40% 1 17.09.2027 -
Alan Morinigo Olimpia Aktiv 115 / 114 40% 2 16.09.2027 -
Emmanuel Akpan Bendel Insurance Aktiv 79 / 96 40% 1 12.09.2027 -
Jofrank Istifanus Nasarawa United Aktiv 87 / 93 40% 1 08.09.2027 -
Gift Isioma Warri Wolves Aktiv 81 / 79 40% 1 06.09.2027 -
Elias Hoff Melkersen Stromsgodset Aktiv 117 / 112 79% 1 09.08.2027 Befürworten
Sascha Britschgi Catanzaro Aktiv 118 / 131 40% 6 16.07.2027 -
Enzo Cardozo Virtus Entella Aktiv 107 / 120 40% 5 16.07.2027 -
João Félix Aston Villa Aktiv 153 / 153 66% 1 16.07.2027 Befürworten
Gonzalo Plata Rosenborg Verhandlung 133 / 134 66% 1 16.07.2027 Befürworten
Konstantin Tyukavin Arsenal Aktiv 132 / 133 66% 1 16.07.2027 Befürworten
Mattia Puzone Siracusa Aktiv 100 / 110 40% 1 16.07.2027 -
Pablo Felipe West Ham United Aktiv 137 / 141 40% 1 15.07.2027 -
Patrick Agyemang Derby County Aktiv 133 / 120 40% 1 15.07.2027 -
Nikola Vlašić Torino Aktiv 150 / 147 40% 1 15.07.2027 -
Carlos Vicente Udinese Aktiv 142 / 140 40% 4 14.07.2027 -
Tariq Lamptey Queens Park Rangers Aktiv 140 / 142 40% 2 14.07.2027 -
Tarik Karic Malmo FF Aktiv 92 / 97 30% 1 / 1m 14.07.2027 -
Demarai Gray Birmingham Aktiv 130 / 128 40% 9 13.07.2027 -
Malik Mothersille Stockport County Aktiv 116 / 121 40% 1 13.07.2027 -
Abraham Paintsil Hasaacas Aktiv 81 / 89 40% 3 12.07.2027 -
Joe Johnson Luton Town Aktiv 98 / 103 40% 1 12.07.2027 -
Leonardo Mendicino Bari Aktiv 114 / 121 40% 7 11.07.2027 -
Jonathan De Irastorza Levante Aktiv 118 / 128 40% 2 11.07.2027 -
Brooke Norton-Cuffy Hull City Aktiv 145 / 140 40% 2 11.07.2027 -
Jeon Jin-Woo Sheffield Wednesday Aktiv 135 / 128 40% 2 11.07.2027 -
Ronald Swansea City Aktiv 125 / 135 40% 9 10.07.2027 -
Cian Ashford Cardiff City Aktiv 121 / 124 40% 5 10.07.2027 -
Gladson Sulemana Liberty Professionals Aktiv 88 / 95 40% 8 09.07.2027 -
Daniel Kelly Derby County Aktiv 113 / 128 40% 2 09.07.2027 -
Gonçalo Oliveira Benfica Aktiv 113 / 123 40% 8 08.07.2027 -
Maeson King Blackpool Aktiv 108 / 115 40% 4 08.07.2027 -
Dylan Lawlor Cardiff City Aktiv 117 / 122 40% 2 08.07.2027 -
Joel McGregor Swindon Town Aktiv 101 / 94 40% 5 07.07.2027 -
Andrey Ivlev Nizhniy Novgorod Aktiv 111 / 123 40% 1 07.07.2027 -
Lamine Cissé Peterborough United Aktiv 131 / 123 40% 7 05.07.2027 -
Julio Enciso Ipswich Town Aktiv 143 / 155 40% 5 05.07.2027 -
Emile Smith Rowe Fulham Aktiv 149 / 150 40% 1 05.07.2027 -
Ramón Terrats Getafe Aktiv 137 / 138 40% 7 04.07.2027 -
Ryoya Morishita Blackburn Rovers Aktiv 129 / 131 40% 2 04.07.2027 -
Lucas Bergvall Tottenham Aktiv 154 / 157 40% 5 03.07.2027 -
Aaron Collins Milton Keynes Dons Aktiv 127 / 121 40% 3 01.07.2027 -
Zeidane Inoussa Swansea City Aktiv 130 / 124 40% 6 01.07.2027 -
Matteo Zazza Altamura Aktiv 101 / 99 40% 3 29.06.2027 -
Chemsdine Talbi Sunderland Aktiv 144 / 148 40% 7 27.06.2027 -
Léo Scienza Southampton Aktiv 142 / 132 40% 3 27.06.2027 -
Edwin Asamoah Berekum Chelsea Aktiv 84 / 88 40% 5 26.06.2027 -
Alex Scott Bournemouth Aktiv 148 / 147 40% 2 25.06.2027 -
Jofre Torrents Ajax Aktiv 122 / 127 40% 4 25.06.2027 -
Dávid Strelec Middlesbrough Aktiv 143 / 140 40% 3 25.06.2027 -
T-Jay Parfitt Cardiff City Aktiv 98 / 97 40% 3 23.06.2027 -
Alexander Warneryd Tromso Aktiv 116 / 114 40% 1 23.06.2027 -
Riquelme Thompson-Jones Shrewsbury Town Aktiv 103 / 117 40% 7 22.06.2027 -
Max Johnston Derby County Aktiv 131 / 123 40% 2 22.06.2027 -
Andre Brooks Sheffield United Aktiv 132 / 138 40% 1 22.06.2027 -
Jack Diamond Stockport County Aktiv 128 / 120 40% 1 22.06.2027 -
Riley Owen Wycombe Wanderers Aktiv 102 / 109 40% 2 21.06.2027 -
Josh Murphy Portsmouth Aktiv 122 / 128 40% 4 21.06.2027 -
Isaac Price West Bromwich Albion Aktiv 137 / 135 40% 3 20.06.2027 -
Tommaso Cecotti Carpi Aktiv 87 / 103 40% 4 20.06.2027 -
Romano Schmid Frosinone Aktiv 153 / 148 40% 2 20.06.2027 -
Tommy Conway Middlesbrough Aktiv 139 / 127 40% 3 20.06.2027 -
Ethan Galbraith Swansea City Aktiv 139 / 129 40% 2 18.06.2027 -
Ilias Chair Queens Park Rangers Aktiv 136 / 131 40% 1 18.06.2027 -
Ross McCrorie Bristol City Aktiv 127 / 130 40% 2 17.06.2027 -
Riley McGree Middlesbrough Aktiv 134 / 128 40% 1 17.06.2027 -
Jason Knight Bristol City Aktiv 124 / 127 40% 1 17.06.2027 -
Rumarn Burrell Queens Park Rangers Aktiv 124 / 131 40% 5 16.06.2027 -
Koki Saito Queens Park Rangers Aktiv 130 / 130 40% 6 14.06.2027 -
Harry Wilson Leeds United Aktiv 143 / 139 40% 2 14.06.2027 -
Saša Lukić Ipswich Town Aktiv 142 / 139 40% 1 14.06.2027 -
Tom Fellows Southampton Aktiv 135 / 133 40% 4 13.06.2027 -
Mohammed Wakaso Hasaacas Aktiv 88 / 98 40% 2 12.06.2027 -
Martim Cunha Porto Aktiv 98 / 107 40% 5 11.06.2027 -
Kasey McAteer Ipswich Town Aktiv 140 / 128 40% 2 11.06.2027 -
Simone Kosijer Triestina Aktiv 102 / 104 40% 1 11.06.2027 -
Jacob Wright Norwich City Aktiv 124 / 120 40% 1 09.06.2027 -
Jack McGlynn Stoke City Aktiv 136 / 132 40% 2 08.06.2027 -
Ibrahim Sabiu Bendel Insurance Aktiv 85 / 87 40% 1 08.06.2027 -
Samuel Lucero Defensa y Justicia Aktiv 107 / 127 40% 1 07.06.2027 -
Ronan Kpakio Brentford Aktiv 122 / 120 40% 3 05.06.2027 -
Davide Bartesaghi AC Milan Aktiv 139 / 141 40% 1 05.06.2027 -
Lucas Høgsberg Paris Saint-Germain Aktiv 139 / 145 40% 3 03.06.2027 -
Bobby Clark Derby County Aktiv 126 / 129 40% 1 02.06.2027 -
Isaiah Jones Luton Town Aktiv 127 / 123 40% 2 01.06.2027 -
Pietro Reggiori Pro Patria Aktiv 88 / 96 40% 3 31.05.2027 -
Milan van Ewijk Coventry City Aktiv 140 / 126 40% 3 30.05.2027 -
Million Manhoef Stoke City Aktiv 126 / 133 40% 1 30.05.2027 -
Tiago Freitas Benfica Aktiv 109 / 125 40% 1 30.05.2027 -
Leandro Martins Benfica Aktiv 95 / 105 40% 4 29.05.2027 -
Rhys Chadwick Gillingham Aktiv 100 / 110 40% 1 29.05.2027 -
Loum Tchaouna Coventry City Aktiv 144 / 134 40% 1 29.05.2027 -
Charles De Ketelaere Atalanta Aktiv 162 / 148 40% 2 26.05.2027 -
Tomáš Rigo Stoke City Aktiv 130 / 124 40% 1 26.05.2027 -
Finn Azaz Southampton Aktiv 138 / 130 40% 2 24.05.2027 -
Melker Widell Swansea City Aktiv 126 / 118 40% 2 23.05.2027 -
Louie Barry Sheffield Wednesday Aktiv 127 / 132 40% 1 18.05.2027 -
Kenny Tete Fulham Aktiv 139 / 133 40% 2 17.05.2027 -
Surprise Manthosi Polokwane City Aktiv 92 / 97 40% 1 16.05.2027 -
Zian Flemming Ipswich Town Aktiv 132 / 128 40% 2 14.05.2027 -
Daniel Vernattus Metalist Aktiv 92 / 86 40% 1 14.05.2027 -
Jack Rudoni Coventry City Aktiv 133 / 130 40% 1 13.05.2027 -
Victor Ehibe Gazelle Garoua Aktiv 86 / 92 40% 1 12.05.2027 -
Riyad Idrissi Torino Aktiv 124 / 126 40% 2 10.05.2027 -
Amine Adli Bournemouth Aktiv 144 / 146 40% 1 10.05.2027 -
Oladapo Afolayan Blackburn Rovers Aktiv 129 / 123 40% 2 07.05.2027 -
Anton Stach Leeds United Aktiv 149 / 149 40% 1 07.05.2027 -
Diego Rossi Forli Aktiv 89 / 101 40% 1 07.05.2027 -
Ola Visted Sarpsborg 08 Aktiv 105 / 108 42% 1 / 1m 05.05.2027 -
Luca Lipani Frosinone Aktiv 114 / 122 40% 1 03.05.2027 -
Oliver Skipp Leicester City Aktiv 133 / 126 40% 2 28.04.2027 -
Marcus Edwards Burnley Aktiv 134 / 139 40% 3 28.04.2027 -
Mathias Jørgensen Blackburn Rovers Aktiv 116 / 119 40% 5 24.04.2027 -
Welington Southampton Aktiv 136 / 133 40% 2 23.04.2027 -
Mihailo Ivanović Millwall Aktiv 118 / 129 40% 1 23.04.2027 -
Lucas Jetten Cambuur Aktiv 103 / 113 40% 1 22.04.2027 -
Jake Batty Bristol Rovers Aktiv 95 / 105 40% 1 22.04.2027 -
Jay Stansfield Birmingham Aktiv 128 / 135 40% 2 15.04.2027 -
Todd Cantwell Blackburn Rovers Aktiv 130 / 127 40% 2 14.04.2027 -
Aidomo Emakhu Oxford United Aktiv 118 / 126 40% 1 13.04.2027 -
Enzo Le Fée Sunderland Aktiv 142 / 133 40% 1 13.04.2027 -
Bosun Lawal Stoke City Aktiv 129 / 137 40% 1 12.04.2027 -
Chema Andrés Liverpool Aktiv 138 / 137 40% 1 05.04.2027 -
Stephy Mavididi Leicester City Aktiv 134 / 126 40% 3 04.04.2027 -
Mario Pašalić Atalanta Aktiv 158 / 144 40% 1 04.04.2027 -
Myles Peart-Harris Oxford United Aktiv 121 / 115 40% 1 31.03.2027 -
Mark Sykes Millwall Aktiv 119 / 128 40% 1 31.03.2027 -
Alessio Zerbin Frosinone Aktiv 134 / 125 40% 1 30.03.2027 -
Harry Clarke Preston Aktiv 125 / 122 40% 1 26.03.2027 -
Callum O'Hare Sheffield United Aktiv 128 / 129 40% 1 26.03.2027 -
Ross Stewart Southampton Aktiv 132 / 123 40% 1 24.03.2027 -
Marquinhos Spartak Moscow Aktiv 134 / 129 40% 1 23.03.2027 -
Joe Gelhardt Hull City Aktiv 130 / 130 40% 1 23.03.2027 -
Ali Ahmed Norwich City Aktiv 124 / 118 40% 2 22.03.2027 -
Pablo Solari Spartak Moscow Aktiv 134 / 136 40% 1 22.03.2027 -